Time;durP1;ratioP1;P1;durP2;ratioP2;P2;SDS_P1;SDS_P2;PMS_P1;PMS_P2;Temp;Humidity;BMP_temperature;BMP_pressure;BME280_temperature;BME280_humidity;BME280_pressure;Samples;Min_cycle;Max_cycle;Signal;HPM_P1;HPM_P2
2024/04/24 00:00:15;;;;;;;;;;;9.30;99.90;;;;;;5452008;26;19925;-73
2024/04/24 00:02:40;;;;;;;;;;;9.30;99.90;;;;;;5451648;26;19956;-73
2024/04/24 00:05:06;;;;;;;;;;;9.30;99.90;;;;;;5450249;26;19924;-73
2024/04/24 00:07:32;;;;;;;;;;;9.20;99.90;;;;;;5452517;26;19924;-71
2024/04/24 00:09:57;;;;;;;;;;;9.20;99.90;;;;;;5451602;26;19924;-77
2024/04/24 00:12:23;;;;;;;;;;;9.20;99.90;;;;;;5419817;26;19936;-72
2024/04/24 00:14:49;;;;;;;;;;;9.20;99.90;;;;;;5420179;26;19933;-72
2024/04/24 00:17:14;;;;;;;;;;;9.20;99.90;;;;;;5449915;26;19925;-72
2024/04/24 00:19:40;;;;;;;;;;;9.20;99.90;;;;;;5449429;26;19936;-72
2024/04/24 00:22:05;;;;;;;;;;;9.20;99.90;;;;;;5451802;26;19943;-72
2024/04/24 00:24:31;;;;;;;;;;;9.20;99.90;;;;;;5451715;26;20463;-73
2024/04/24 00:26:56;;;;;;;;;;;9.20;99.90;;;;;;5412855;26;20264;-73
2024/04/24 00:29:23;;;;;;;;;;;9.20;99.90;;;;;;5451907;26;19949;-73
2024/04/24 00:31:50;;;;;;;;;;;9.10;99.90;;;;;;5451650;26;20424;-72
2024/04/24 00:34:15;;;;;;;;;;;9.10;99.90;;;;;;5451296;26;19924;-73
2024/04/24 00:36:41;;;;;;;;;;;9.10;99.90;;;;;;5449915;26;19932;-73
2024/04/24 00:39:06;;;;;;;;;;;9.20;99.90;;;;;;5451976;26;19936;-74
2024/04/24 00:41:32;;;;;;;;;;;9.10;99.90;;;;;;5449844;26;19931;-73
2024/04/24 00:43:57;;;;;;;;;;;9.10;99.90;;;;;;5451249;26;19924;-73
2024/04/24 00:46:24;;;;;;;;;;;9.10;99.90;;;;;;5449707;26;19924;-73
2024/04/24 00:48:50;;;;;;;;;;;9.10;99.90;;;;;;5451480;26;19931;-73
2024/04/24 00:51:16;;;;;;;;;;;9.10;99.90;;;;;;5419692;26;19925;-73
2024/04/24 00:53:42;;;;;;;;;;;9.00;99.90;;;;;;5449702;26;20014;-73
2024/04/24 00:56:07;;;;;;;;;;;9.00;99.90;;;;;;5419646;26;19931;-73
2024/04/24 00:58:35;;;;;;;;;;;9.10;99.90;;;;;;5451405;26;19956;-73
2024/04/24 01:01:01;;;;;;;;;;;9.10;99.90;;;;;;5451262;26;19924;-73
2024/04/24 01:03:27;;;;;;;;;;;9.10;99.90;;;;;;5449413;26;19924;-73
2024/04/24 01:05:53;;;;;;;;;;;9.10;99.90;;;;;;5417907;26;20246;-74
2024/04/24 01:08:19;;;;;;;;;;;9.10;99.90;;;;;;5451252;26;19924;-71
2024/04/24 01:10:44;;;;;;;;;;;9.10;99.90;;;;;;5419204;26;19924;-74
2024/04/24 01:13:10;;;;;;;;;;;9.10;99.90;;;;;;5451530;26;20494;-72
2024/04/24 01:15:37;;;;;;;;;;;9.10;99.90;;;;;;5451229;26;20313;-73
2024/04/24 01:18:03;;;;;;;;;;;9.10;99.90;;;;;;5451202;26;20373;-73
2024/04/24 01:20:29;;;;;;;;;;;9.10;99.90;;;;;;5451208;26;19925;-73
2024/04/24 01:22:54;;;;;;;;;;;9.10;99.90;;;;;;5419278;26;20005;-73
2024/04/24 01:25:38;;;;;;;;;;;9.10;99.90;;;;;;5419413;26;19931;-72
2024/04/24 01:28:04;;;;;;;;;;;9.10;99.90;;;;;;5445664;26;19925;-73
2024/04/24 01:30:29;;;;;;;;;;;9.10;99.90;;;;;;5449744;26;19931;-73
2024/04/24 01:32:55;;;;;;;;;;;9.10;99.90;;;;;;5450583;26;19931;-73
2024/04/24 01:35:20;;;;;;;;;;;9.10;99.90;;;;;;5450849;26;19956;-73
2024/04/24 01:37:46;;;;;;;;;;;9.10;99.90;;;;;;5418817;26;19925;-73
2024/04/24 01:40:11;;;;;;;;;;;9.10;99.90;;;;;;5418998;26;19924;-72
2024/04/24 01:42:37;;;;;;;;;;;9.00;99.90;;;;;;5450666;26;19933;-71
2024/04/24 01:45:03;;;;;;;;;;;9.00;99.90;;;;;;5450482;26;20253;-71
2024/04/24 01:47:28;;;;;;;;;;;9.10;99.90;;;;;;5450448;26;20380;-71
2024/04/24 01:49:54;;;;;;;;;;;9.00;99.90;;;;;;5450590;26;19925;-73
2024/04/24 01:52:19;;;;;;;;;;;9.10;99.90;;;;;;5418724;26;19939;-73
2024/04/24 01:54:45;;;;;;;;;;;9.00;99.90;;;;;;5453402;26;19932;-78
2024/04/24 01:57:10;;;;;;;;;;;9.00;99.90;;;;;;5423922;26;19924;-75
2024/04/24 01:59:36;;;;;;;;;;;9.10;99.90;;;;;;5450817;26;20387;-72
2024/04/24 02:02:01;;;;;;;;;;;9.00;99.90;;;;;;5453443;26;19931;-75
2024/04/24 02:04:27;;;;;;;;;;;9.10;99.90;;;;;;5456148;26;19957;-75
2024/04/24 02:06:52;;;;;;;;;;;9.00;99.90;;;;;;5454738;26;20001;-73
2024/04/24 02:09:18;;;;;;;;;;;9.10;99.90;;;;;;5450454;26;20016;-73
2024/04/24 02:11:43;;;;;;;;;;;9.20;99.90;;;;;;5450902;26;20001;-73
2024/04/24 02:14:09;;;;;;;;;;;9.20;99.90;;;;;;5450845;26;19925;-73
2024/04/24 02:16:34;;;;;;;;;;;9.10;99.90;;;;;;5447803;26;19924;-73
2024/04/24 02:19:00;;;;;;;;;;;9.10;99.90;;;;;;5448177;26;20357;-73
2024/04/24 02:21:25;;;;;;;;;;;9.10;99.90;;;;;;5449978;26;20338;-73
2024/04/24 02:23:51;;;;;;;;;;;9.20;99.90;;;;;;5450075;26;19936;-73
2024/04/24 02:26:17;;;;;;;;;;;9.10;99.90;;;;;;5448011;26;19924;-72
2024/04/24 02:28:42;;;;;;;;;;;9.20;99.90;;;;;;5450048;26;19925;-73
2024/04/24 02:31:09;;;;;;;;;;;9.10;99.90;;;;;;5441065;26;20361;-72
2024/04/24 02:33:34;;;;;;;;;;;9.10;99.90;;;;;;5448282;26;19932;-72
2024/04/24 02:36:00;;;;;;;;;;;9.10;99.90;;;;;;5449624;26;19925;-73
2024/04/24 02:38:25;;;;;;;;;;;9.10;99.90;;;;;;5447341;26;19929;-73
2024/04/24 02:40:51;;;;;;;;;;;9.10;99.90;;;;;;5449859;26;19924;-72
2024/04/24 02:43:16;;;;;;;;;;;9.00;99.90;;;;;;5449739;26;19958;-71
2024/04/24 02:45:42;;;;;;;;;;;9.00;99.90;;;;;;5449695;26;19956;-73
2024/04/24 02:48:07;;;;;;;;;;;9.10;99.90;;;;;;5418071;26;19932;-73
2024/04/24 02:50:33;;;;;;;;;;;9.10;99.90;;;;;;5447568;26;19931;-73
2024/04/24 02:52:59;;;;;;;;;;;9.00;99.90;;;;;;5417846;26;19952;-72
2024/04/24 02:55:25;;;;;;;;;;;9.10;99.90;;;;;;5447818;26;20269;-72
2024/04/24 02:57:50;;;;;;;;;;;9.00;99.90;;;;;;5447850;26;19924;-73
2024/04/24 03:00:16;;;;;;;;;;;9.00;99.90;;;;;;5449672;26;19948;-73
2024/04/24 03:02:41;;;;;;;;;;;9.00;99.90;;;;;;5448116;26;19924;-73
2024/04/24 03:05:07;;;;;;;;;;;9.00;99.90;;;;;;5449678;26;19925;-73
2024/04/24 03:07:32;;;;;;;;;;;9.00;99.90;;;;;;5447472;26;19952;-73
2024/04/24 03:09:58;;;;;;;;;;;9.00;99.90;;;;;;5447162;26;19932;-73
2024/04/24 03:12:25;;;;;;;;;;;9.00;99.90;;;;;;5417611;26;19932;-73
2024/04/24 03:14:50;;;;;;;;;;;9.00;99.90;;;;;;5417358;26;19953;-73
2024/04/24 03:17:16;;;;;;;;;;;9.10;99.90;;;;;;5449088;26;19932;-73
2024/04/24 03:19:41;;;;;;;;;;;9.00;99.90;;;;;;5448944;26;19925;-73
2024/04/24 03:22:07;;;;;;;;;;;9.00;99.90;;;;;;5448754;26;19931;-73
2024/04/24 03:24:32;;;;;;;;;;;9.00;99.90;;;;;;5448594;26;19929;-73
2024/04/24 03:26:58;;;;;;;;;;;9.00;99.90;;;;;;5417301;26;19925;-73
2024/04/24 03:29:24;;;;;;;;;;;9.00;99.90;;;;;;5451259;26;19932;-73
2024/04/24 03:31:49;;;;;;;;;;;9.00;99.90;;;;;;5443396;26;19931;-73
2024/04/24 03:34:15;;;;;;;;;;;9.00;99.90;;;;;;5450460;26;20342;-72
2024/04/24 03:36:41;;;;;;;;;;;9.00;99.90;;;;;;5450530;26;19924;-73
2024/04/24 03:39:07;;;;;;;;;;;9.00;99.90;;;;;;5450750;26;20319;-73
2024/04/24 03:41:32;;;;;;;;;;;8.90;99.90;;;;;;5450483;26;19960;-73
2024/04/24 03:43:58;;;;;;;;;;;9.00;99.90;;;;;;5420497;26;19969;-73
2024/04/24 03:46:25;;;;;;;;;;;8.90;99.90;;;;;;5452515;26;19939;-73
2024/04/24 03:48:50;;;;;;;;;;;8.90;99.90;;;;;;5452846;26;20377;-73
2024/04/24 03:51:16;;;;;;;;;;;8.90;99.90;;;;;;5420500;26;19924;-73
2024/04/24 03:53:41;;;;;;;;;;;8.90;99.90;;;;;;5449777;26;19925;-73
2024/04/24 03:56:07;;;;;;;;;;;8.90;99.90;;;;;;5451981;26;19932;-72
2024/04/24 03:58:32;;;;;;;;;;;8.90;99.90;;;;;;5420463;26;19949;-72
2024/04/24 04:00:58;;;;;;;;;;;8.90;99.90;;;;;;5452181;26;20489;-73
2024/04/24 04:03:23;;;;;;;;;;;8.90;99.90;;;;;;5420129;26;20408;-72
2024/04/24 04:05:49;;;;;;;;;;;9.00;99.90;;;;;;5451651;26;19936;-73
2024/04/24 04:08:14;;;;;;;;;;;9.00;99.90;;;;;;5452058;26;19932;-74
2024/04/24 04:10:40;;;;;;;;;;;9.00;99.90;;;;;;5449712;26;19956;-73
2024/04/24 04:13:05;;;;;;;;;;;9.00;99.90;;;;;;5449759;26;19924;-73
2024/04/24 04:15:31;;;;;;;;;;;9.00;99.90;;;;;;5452008;26;19931;-73
2024/04/24 04:17:57;;;;;;;;;;;9.00;99.90;;;;;;5420074;26;20018;-71
2024/04/24 04:20:22;;;;;;;;;;;9.00;99.90;;;;;;5451926;26;20339;-73
2024/04/24 04:22:48;;;;;;;;;;;9.00;99.90;;;;;;5420047;26;19925;-72
2024/04/24 04:25:13;;;;;;;;;;;9.00;99.90;;;;;;5452050;26;19924;-73
2024/04/24 04:27:39;;;;;;;;;;;9.00;99.90;;;;;;5451572;26;19983;-73
2024/04/24 04:30:05;;;;;;;;;;;9.00;99.90;;;;;;5451911;26;19925;-73
2024/04/24 04:32:31;;;;;;;;;;;9.00;99.90;;;;;;5419883;26;19925;-73
2024/04/24 04:34:56;;;;;;;;;;;9.10;99.90;;;;;;5420149;26;20004;-73
2024/04/24 04:37:22;;;;;;;;;;;9.10;99.90;;;;;;5449460;26;19983;-74
2024/04/24 04:39:47;;;;;;;;;;;9.10;99.90;;;;;;5449505;26;19925;-73
2024/04/24 04:42:13;;;;;;;;;;;9.10;99.90;;;;;;5451631;26;19932;-73
2024/04/24 04:44:38;;;;;;;;;;;9.20;99.90;;;;;;5419410;26;19935;-73
2024/04/24 04:47:04;;;;;;;;;;;9.20;99.90;;;;;;5451653;26;19924;-74
2024/04/24 04:49:29;;;;;;;;;;;9.20;99.90;;;;;;5419464;26;19932;-73
2024/04/24 04:51:55;;;;;;;;;;;9.30;99.90;;;;;;5449263;26;19936;-73
2024/04/24 04:54:20;;;;;;;;;;;9.40;99.90;;;;;;5449420;26;20364;-73
2024/04/24 04:56:46;;;;;;;;;;;9.50;99.90;;;;;;5449614;26;20261;-73
2024/04/24 04:59:12;;;;;;;;;;;9.50;99.90;;;;;;5451514;26;19948;-73
2024/04/24 05:01:37;;;;;;;;;;;9.50;99.90;;;;;;5419391;26;19925;-72
2024/04/24 05:04:03;;;;;;;;;;;9.50;99.90;;;;;;5451248;26;20022;-73
2024/04/24 05:06:28;;;;;;;;;;;9.60;99.90;;;;;;5450936;26;19931;-72
2024/04/24 05:08:54;;;;;;;;;;;9.60;99.90;;;;;;5451294;26;19925;-72
2024/04/24 05:11:19;;;;;;;;;;;9.60;99.90;;;;;;5451608;26;20308;-72
2024/04/24 05:13:45;;;;;;;;;;;9.60;99.90;;;;;;5449507;26;19925;-72
2024/04/24 05:16:11;;;;;;;;;;;9.60;99.90;;;;;;5449572;26;19944;-73
2024/04/24 05:18:37;;;;;;;;;;;9.50;99.90;;;;;;5451422;26;19925;-73
2024/04/24 05:21:05;;;;;;;;;;;9.60;99.90;;;;;;5452364;26;19931;-73
2024/04/24 05:23:30;;;;;;;;;;;9.60;99.90;;;;;;5455714;26;19924;-74
2024/04/24 05:25:57;;;;;;;;;;;9.60;99.90;;;;;;5454599;26;19924;-74
2024/04/24 05:31:07;;;;;;;;;;;9.70;99.90;;;;;;5456362;26;19966;-71
2024/04/24 05:33:33;;;;;;;;;;;9.70;99.90;;;;;;5454356;26;19924;-73
2024/04/24 05:35:59;;;;;;;;;;;9.60;99.90;;;;;;5449496;26;19936;-73
2024/04/24 05:38:24;;;;;;;;;;;9.60;99.90;;;;;;5451460;26;20005;-72
2024/04/24 05:40:50;;;;;;;;;;;9.70;99.90;;;;;;5418989;26;20359;-73
2024/04/24 05:43:15;;;;;;;;;;;9.70;99.90;;;;;;5418701;26;20554;-73
2024/04/24 05:45:41;;;;;;;;;;;9.80;99.90;;;;;;5418985;26;19924;-72
2024/04/24 05:48:06;;;;;;;;;;;9.90;99.90;;;;;;5450766;26;19929;-73
2024/04/24 05:50:32;;;;;;;;;;;9.90;99.90;;;;;;5448147;26;19925;-73
2024/04/24 05:52:57;;;;;;;;;;;10.00;99.90;;;;;;5449858;26;20012;-73
2024/04/24 05:55:25;;;;;;;;;;;10.00;99.90;;;;;;5418746;26;19961;-73
2024/04/24 05:57:51;;;;;;;;;;;10.10;99.90;;;;;;5418610;26;19925;-72
2024/04/24 06:00:16;;;;;;;;;;;10.20;99.90;;;;;;5448843;26;19953;-74
2024/04/24 06:02:42;;;;;;;;;;;10.20;99.90;;;;;;5450421;26;19924;-74
2024/04/24 06:05:07;;;;;;;;;;;10.20;99.90;;;;;;5450691;26;19925;-73
2024/04/24 06:07:33;;;;;;;;;;;10.20;99.90;;;;;;5448986;26;19989;-74
2024/04/24 06:09:59;;;;;;;;;;;10.20;99.90;;;;;;5448836;26;19925;-73
2024/04/24 06:12:24;;;;;;;;;;;10.20;99.90;;;;;;5450357;26;19997;-73
2024/04/24 06:14:50;;;;;;;;;;;10.20;99.90;;;;;;5450374;26;19985;-73
2024/04/24 06:17:15;;;;;;;;;;;10.20;99.90;;;;;;5450220;26;19925;-74
2024/04/24 06:19:41;;;;;;;;;;;10.20;99.90;;;;;;5418947;26;19948;-74
2024/04/24 06:22:07;;;;;;;;;;;10.30;99.90;;;;;;5450114;26;19925;-74
2024/04/24 06:24:33;;;;;;;;;;;10.30;99.90;;;;;;5418088;26;19947;-74
2024/04/24 06:26:58;;;;;;;;;;;10.30;99.90;;;;;;5448129;26;19924;-74
2024/04/24 06:29:24;;;;;;;;;;;10.40;99.90;;;;;;5418139;26;20035;-73
2024/04/24 06:31:50;;;;;;;;;;;10.50;99.90;;;;;;5449754;26;19937;-74
2024/04/24 06:34:16;;;;;;;;;;;10.60;99.90;;;;;;5441416;26;19925;-74
2024/04/24 06:36:41;;;;;;;;;;;10.70;99.90;;;;;;5414468;26;19924;-73
2024/04/24 06:39:07;;;;;;;;;;;10.60;99.90;;;;;;5414176;26;19925;-73
2024/04/24 06:41:32;;;;;;;;;;;10.50;99.90;;;;;;5413343;26;19925;-74
2024/04/24 06:43:58;;;;;;;;;;;10.40;99.90;;;;;;5413856;26;19978;-73
2024/04/24 06:46:32;;;;;;;;;;;10.30;99.90;;;;;;5413820;26;19967;-73
2024/04/24 06:48:57;;;;;;;;;;;10.20;99.90;;;;;;5411909;26;19925;-74
2024/04/24 06:51:23;;;;;;;;;;;10.10;99.90;;;;;;5413853;26;19936;-73
2024/04/24 06:53:49;;;;;;;;;;;10.10;99.90;;;;;;5441598;26;19925;-73
2024/04/24 06:56:14;;;;;;;;;;;10.10;99.90;;;;;;5412321;26;20350;-73
2024/04/24 06:58:40;;;;;;;;;;;10.00;99.90;;;;;;5411233;26;20368;-74
2024/04/24 07:01:05;;;;;;;;;;;10.00;99.90;;;;;;5411324;26;20350;-74
2024/04/24 07:03:31;;;;;;;;;;;10.00;99.90;;;;;;5413948;26;20359;-74
2024/04/24 07:05:56;;;;;;;;;;;10.20;99.90;;;;;;5416940;26;19933;-73
2024/04/24 07:08:22;;;;;;;;;;;10.20;99.90;;;;;;5414966;26;19933;-74
2024/04/24 07:10:48;;;;;;;;;;;10.30;99.90;;;;;;5415002;26;19925;-73
2024/04/24 07:13:14;;;;;;;;;;;10.30;99.90;;;;;;5417012;26;19966;-74
2024/04/24 07:15:42;;;;;;;;;;;10.30;99.90;;;;;;5416615;26;19933;-72
2024/04/24 07:18:07;;;;;;;;;;;10.40;99.90;;;;;;5415008;26;19932;-73
2024/04/24 07:20:33;;;;;;;;;;;10.50;99.90;;;;;;5416403;26;19925;-73
2024/04/24 07:22:59;;;;;;;;;;;10.60;99.90;;;;;;5414811;26;19933;-74
2024/04/24 07:25:24;;;;;;;;;;;10.60;99.90;;;;;;5416987;26;20345;-75
2024/04/24 07:27:50;;;;;;;;;;;10.60;99.90;;;;;;5416706;26;19925;-75
2024/04/24 07:30:15;;;;;;;;;;;10.60;99.90;;;;;;5416830;26;19931;-75
2024/04/24 07:32:41;;;;;;;;;;;10.60;99.90;;;;;;5416174;26;19924;-74
2024/04/24 07:35:07;;;;;;;;;;;10.60;99.90;;;;;;5442367;26;19931;-75
2024/04/24 07:37:32;;;;;;;;;;;10.70;99.90;;;;;;5452412;26;19924;-74
2024/04/24 07:39:59;;;;;;;;;;;10.60;99.90;;;;;;5452122;26;19993;-75
2024/04/24 07:42:24;;;;;;;;;;;10.70;99.90;;;;;;5450759;26;19924;-74
2024/04/24 07:44:50;;;;;;;;;;;10.70;99.90;;;;;;5452290;26;20049;-75
2024/04/24 07:47:15;;;;;;;;;;;10.80;99.90;;;;;;5452435;26;19948;-75
2024/04/24 07:49:41;;;;;;;;;;;10.90;99.90;;;;;;5452133;26;19925;-74
2024/04/24 07:52:07;;;;;;;;;;;11.10;99.90;;;;;;5420378;26;19924;-75
2024/04/24 07:54:32;;;;;;;;;;;11.10;99.90;;;;;;5449954;26;19936;-75
2024/04/24 07:56:58;;;;;;;;;;;11.20;99.90;;;;;;5451984;26;19924;-74
2024/04/24 07:59:24;;;;;;;;;;;11.40;99.90;;;;;;5420082;26;20421;-75
2024/04/24 08:01:49;;;;;;;;;;;11.60;99.90;;;;;;5420377;26;19967;-75
2024/04/24 08:04:15;;;;;;;;;;;11.90;99.90;;;;;;5420441;26;19964;-74
2024/04/24 08:06:40;;;;;;;;;;;12.10;99.90;;;;;;5450451;26;19924;-75
2024/04/24 08:09:06;;;;;;;;;;;12.20;99.90;;;;;;5420208;26;20315;-74
2024/04/24 08:11:32;;;;;;;;;;;12.20;99.90;;;;;;5452054;26;20361;-75
2024/04/24 08:14:02;;;;;;;;;;;12.20;99.90;;;;;;5449440;26;19925;-75
2024/04/24 08:16:29;;;;;;;;;;;12.20;99.90;;;;;;5449898;26;19936;-74
2024/04/24 08:18:54;;;;;;;;;;;12.20;99.90;;;;;;5452058;26;19924;-75
2024/04/24 08:21:20;;;;;;;;;;;12.20;99.90;;;;;;5451811;26;20368;-75
2024/04/24 08:23:45;;;;;;;;;;;12.20;99.90;;;;;;5451808;26;20246;-74
2024/04/24 08:26:11;;;;;;;;;;;12.20;99.90;;;;;;5452018;26;19932;-75
2024/04/24 08:28:36;;;;;;;;;;;12.30;99.90;;;;;;5420168;26;20991;-75
2024/04/24 08:31:02;;;;;;;;;;;12.20;99.90;;;;;;5419856;26;20427;-75
2024/04/24 08:33:29;;;;;;;;;;;12.20;99.90;;;;;;5451692;26;19936;-75
2024/04/24 08:35:55;;;;;;;;;;;12.10;99.90;;;;;;5449881;26;19931;-75
2024/04/24 08:38:21;;;;;;;;;;;12.20;99.90;;;;;;5419644;26;19939;-74
2024/04/24 08:40:46;;;;;;;;;;;12.20;99.90;;;;;;5451264;26;19924;-75
2024/04/24 08:43:12;;;;;;;;;;;12.00;99.90;;;;;;5451275;26;19935;-75
2024/04/24 08:45:39;;;;;;;;;;;12.00;99.90;;;;;;5451574;26;19931;-75
2024/04/24 08:48:06;;;;;;;;;;;11.90;99.90;;;;;;5419687;26;19935;-75
2024/04/24 08:50:31;;;;;;;;;;;11.80;99.90;;;;;;5451712;26;19960;-76
2024/04/24 08:52:58;;;;;;;;;;;11.80;99.90;;;;;;5451695;26;20364;-75
2024/04/24 08:55:24;;;;;;;;;;;11.70;99.90;;;;;;5419529;26;20254;-75
2024/04/24 08:57:50;;;;;;;;;;;11.70;99.90;;;;;;5451771;26;19931;-75
2024/04/24 09:00:16;;;;;;;;;;;11.70;99.90;;;;;;5419757;26;19924;-74
2024/04/24 09:02:46;;;;;;;;;;;11.50;99.90;;;;;;5451237;26;19930;-75
2024/04/24 09:05:11;;;;;;;;;;;11.50;99.90;;;;;;5451293;26;19925;-75
2024/04/24 09:07:38;;;;;;;;;;;11.50;99.90;;;;;;5451440;26;19924;-75
2024/04/24 09:10:04;;;;;;;;;;;11.40;99.90;;;;;;5451255;26;20250;-74
2024/04/24 09:12:30;;;;;;;;;;;11.30;99.90;;;;;;5451018;26;19947;-75
2024/04/24 09:14:56;;;;;;;;;;;11.20;99.90;;;;;;5419810;26;19924;-75
2024/04/24 09:17:22;;;;;;;;;;;11.00;99.90;;;;;;5451347;26;20324;-75
2024/04/24 09:19:48;;;;;;;;;;;11.00;99.90;;;;;;5451243;26;19933;-75
2024/04/24 09:22:13;;;;;;;;;;;10.90;99.90;;;;;;5451187;26;19924;-75
2024/04/24 09:24:39;;;;;;;;;;;10.80;99.90;;;;;;5451155;26;20349;-76
2024/04/24 09:27:04;;;;;;;;;;;10.80;99.90;;;;;;5449305;26;20345;-76
2024/04/24 09:29:30;;;;;;;;;;;10.70;99.90;;;;;;5449030;26;19957;-75
2024/04/24 09:31:56;;;;;;;;;;;10.60;99.90;;;;;;5450946;26;20426;-75
2024/04/24 09:34:24;;;;;;;;;;;10.60;99.90;;;;;;5450704;26;20350;-74
2024/04/24 09:36:50;;;;;;;;;;;10.60;99.90;;;;;;5449060;26;19997;-74
2024/04/24 09:39:16;;;;;;;;;;;10.40;99.90;;;;;;5448899;26;20324;-74
2024/04/24 09:41:43;;;;;;;;;;;10.40;99.90;;;;;;5450767;26;19931;-73
2024/04/24 09:44:13;;;;;;;;;;;10.40;99.90;;;;;;5418891;26;19924;-74
2024/04/24 09:46:50;;;;;;;;;;;10.40;99.90;;;;;;5448819;26;19924;-72
2024/04/24 09:49:15;;;;;;;;;;;10.40;99.90;;;;;;5448770;26;19924;-74
2024/04/24 09:51:41;;;;;;;;;;;10.50;99.90;;;;;;5450458;26;20357;-74
2024/04/24 09:54:07;;;;;;;;;;;10.50;99.90;;;;;;5448551;26;20324;-73
2024/04/24 09:56:36;;;;;;;;;;;10.60;99.90;;;;;;5450444;26;19932;-75
2024/04/24 09:59:04;;;;;;;;;;;10.70;99.90;;;;;;5450542;26;19933;-73
2024/04/24 10:01:31;;;;;;;;;;;10.90;99.90;;;;;;5450765;26;19931;-74
2024/04/24 10:03:56;;;;;;;;;;;10.90;99.90;;;;;;5450665;26;20345;-75
2024/04/24 10:06:23;;;;;;;;;;;11.10;99.90;;;;;;5450948;26;19924;-74
2024/04/24 10:08:50;;;;;;;;;;;11.20;99.90;;;;;;5450602;26;20267;-74
2024/04/24 10:11:16;;;;;;;;;;;11.30;99.90;;;;;;5450377;26;19956;-74
2024/04/24 10:13:43;;;;;;;;;;;11.40;99.90;;;;;;5450240;26;19924;-73
2024/04/24 10:16:10;;;;;;;;;;;11.60;99.90;;;;;;5450313;26;19931;-75
2024/04/24 10:18:35;;;;;;;;;;;11.70;99.90;;;;;;5418667;26;19931;-73
2024/04/24 10:21:04;;;;;;;;;;;11.70;99.90;;;;;;5450271;26;19924;-73
2024/04/24 10:23:30;;;;;;;;;;;11.80;99.90;;;;;;5450243;26;19924;-73
2024/04/24 10:25:56;;;;;;;;;;;11.90;99.90;;;;;;5448521;26;19924;-75
2024/04/24 10:28:23;;;;;;;;;;;12.00;99.90;;;;;;5448232;26;20881;-74
2024/04/24 10:30:49;;;;;;;;;;;12.10;99.90;;;;;;5448171;26;20002;-74
2024/04/24 10:33:15;;;;;;;;;;;12.20;99.90;;;;;;5449527;26;19924;-74
2024/04/24 10:35:41;;;;;;;;;;;12.20;99.90;;;;;;5448018;26;19932;-74
2024/04/24 10:38:07;;;;;;;;;;;12.20;99.90;;;;;;5449134;26;19960;-74
2024/04/24 10:40:32;;;;;;;;;;;12.30;99.90;;;;;;5447898;26;20705;-74
2024/04/24 10:42:58;;;;;;;;;;;12.30;99.90;;;;;;5447995;26;19974;-73
2024/04/24 10:45:27;;;;;;;;;;;12.40;99.90;;;;;;5418044;26;20249;-74
2024/04/24 10:47:54;;;;;;;;;;;12.40;99.90;;;;;;5447931;26;19932;-74
2024/04/24 10:50:19;;;;;;;;;;;12.40;99.90;;;;;;5449893;26;19946;-74
2024/04/24 10:52:51;;;;;;;;;;;12.50;99.90;;;;;;5449615;26;20242;-74
2024/04/24 10:55:17;;;;;;;;;;;12.60;99.90;;;;;;5417730;26;19931;-73
2024/04/24 10:57:49;;;;;;;;;;;12.50;99.90;;;;;;5449813;26;19932;-74
2024/04/24 11:00:19;;;;;;;;;;;12.50;99.90;;;;;;5417761;26;19932;-73
2024/04/24 11:02:46;;;;;;;;;;;12.50;99.90;;;;;;5449512;26;19924;-75
2024/04/24 11:05:14;;;;;;;;;;;12.50;99.90;;;;;;5449326;26;20300;-74
2024/04/24 11:07:40;;;;;;;;;;;12.60;99.90;;;;;;5447602;26;19924;-75
2024/04/24 11:10:07;;;;;;;;;;;12.60;99.90;;;;;;5447316;26;19997;-73
2024/04/24 11:12:37;;;;;;;;;;;12.60;99.90;;;;;;5417400;26;20387;-74
2024/04/24 11:15:03;;;;;;;;;;;12.60;99.90;;;;;;5448740;26;19935;-74
2024/04/24 11:17:29;;;;;;;;;;;12.80;99.90;;;;;;5416756;26;19989;-74
2024/04/24 11:19:54;;;;;;;;;;;12.90;99.90;;;;;;5446912;26;19924;-73
2024/04/24 11:22:26;;;;;;;;;;;13.00;99.90;;;;;;5449163;26;19931;-74
2024/04/24 11:24:52;;;;;;;;;;;13.20;99.90;;;;;;5441826;26;19924;-74
2024/04/24 11:27:23;;;;;;;;;;;13.30;99.90;;;;;;5448844;26;19931;-74
2024/04/24 11:29:48;;;;;;;;;;;13.20;99.90;;;;;;5448786;26;19957;-74
2024/04/24 11:32:14;;;;;;;;;;;13.20;99.90;;;;;;5447058;26;19932;-75
2024/04/24 11:34:40;;;;;;;;;;;13.10;99.90;;;;;;5448985;26;19924;-74
2024/04/24 11:37:05;;;;;;;;;;;13.00;99.90;;;;;;5448846;26;19925;-74
2024/04/24 11:39:31;;;;;;;;;;;12.90;99.90;;;;;;5446496;26;19924;-73
2024/04/24 11:41:57;;;;;;;;;;;12.90;99.90;;;;;;5416606;26;19931;-74
2024/04/24 11:44:22;;;;;;;;;;;12.80;99.90;;;;;;5416682;26;19925;-74
2024/04/24 11:46:48;;;;;;;;;;;12.70;99.90;;;;;;5446848;26;19993;-75
2024/04/24 11:49:17;;;;;;;;;;;12.80;99.90;;;;;;5448938;26;20001;-73
2024/04/24 11:51:42;;;;;;;;;;;12.70;99.90;;;;;;5452285;26;19925;-74
2024/04/24 11:54:08;;;;;;;;;;;12.70;99.90;;;;;;5420558;26;19924;-74
2024/04/24 11:56:34;;;;;;;;;;;12.70;99.90;;;;;;5450093;26;19955;-74
2024/04/24 11:59:03;;;;;;;;;;;12.70;99.90;;;;;;5452002;26;19926;-73
2024/04/24 12:01:29;;;;;;;;;;;12.70;99.90;;;;;;5450362;26;20327;-74
2024/04/24 12:03:55;;;;;;;;;;;12.60;99.90;;;;;;5420014;26;19931;-75
2024/04/24 12:06:20;;;;;;;;;;;12.60;99.90;;;;;;5419956;26;19925;-73
2024/04/24 12:08:46;;;;;;;;;;;12.50;99.90;;;;;;5450325;26;19932;-76
2024/04/24 12:11:13;;;;;;;;;;;12.40;99.90;;;;;;5452324;26;19932;-74
2024/04/24 12:13:39;;;;;;;;;;;12.30;99.90;;;;;;5451894;26;19928;-73
2024/04/24 12:16:05;;;;;;;;;;;12.20;99.90;;;;;;5451747;26;19924;-73
2024/04/24 12:18:31;;;;;;;;;;;12.00;99.90;;;;;;5451769;26;19924;-74
2024/04/24 12:20:56;;;;;;;;;;;11.70;99.90;;;;;;5450246;26;19930;-73
2024/04/24 12:23:23;;;;;;;;;;;11.50;99.90;;;;;;5450122;26;19952;-74
2024/04/24 12:25:50;;;;;;;;;;;11.30;99.90;;;;;;5449884;26;20323;-73
2024/04/24 12:28:15;;;;;;;;;;;11.10;99.90;;;;;;5451804;26;19924;-73
2024/04/24 12:30:52;;;;;;;;;;;11.10;99.90;;;;;;5442685;26;19931;-73
2024/04/24 12:33:19;;;;;;;;;;;11.00;99.90;;;;;;5451461;26;19931;-73
2024/04/24 12:35:45;;;;;;;;;;;11.00;99.90;;;;;;5451650;26;19936;-74
2024/04/24 12:38:10;;;;;;;;;;;11.00;99.90;;;;;;5451282;26;19932;-74
2024/04/24 12:40:36;;;;;;;;;;;10.90;99.90;;;;;;5451465;26;20020;-73
2024/04/24 12:43:02;;;;;;;;;;;10.90;99.90;;;;;;5451419;26;19936;-73
2024/04/24 12:45:28;;;;;;;;;;;10.90;99.90;;;;;;5451530;26;19943;-75
2024/04/24 12:47:54;;;;;;;;;;;10.90;99.90;;;;;;5419336;26;20567;-74
2024/04/24 12:50:19;;;;;;;;;;;10.90;99.90;;;;;;5419718;26;19924;-74
2024/04/24 12:52:45;;;;;;;;;;;10.80;99.90;;;;;;5449537;26;19972;-73
2024/04/24 12:55:11;;;;;;;;;;;10.70;99.90;;;;;;5451208;26;19924;-72
2024/04/24 12:57:37;;;;;;;;;;;10.80;99.90;;;;;;5419435;26;19924;-74
2024/04/24 13:00:03;;;;;;;;;;;10.80;99.90;;;;;;5449094;26;19924;-74
2024/04/24 13:02:29;;;;;;;;;;;10.90;99.90;;;;;;5450959;26;19924;-74
2024/04/24 13:04:55;;;;;;;;;;;10.90;99.90;;;;;;5448993;26;20372;-74
2024/04/24 13:07:20;;;;;;;;;;;10.90;99.90;;;;;;5419564;26;20377;-73
2024/04/24 13:09:46;;;;;;;;;;;11.00;99.90;;;;;;5451238;26;20350;-74
2024/04/24 13:12:11;;;;;;;;;;;11.00;99.90;;;;;;5451704;26;20394;-73
2024/04/24 13:14:37;;;;;;;;;;;11.00;99.90;;;;;;5451006;26;19924;-73
2024/04/24 13:17:02;;;;;;;;;;;11.00;99.90;;;;;;5451031;26;20436;-72
2024/04/24 13:19:28;;;;;;;;;;;11.00;99.90;;;;;;5450619;26;20250;-74
2024/04/24 13:21:53;;;;;;;;;;;11.00;99.90;;;;;;5450855;26;19960;-73
2024/04/24 13:24:19;;;;;;;;;;;11.10;99.90;;;;;;5444494;26;19924;-73
2024/04/24 13:26:44;;;;;;;;;;;11.20;99.90;;;;;;5447997;26;19924;-73
2024/04/24 13:29:10;;;;;;;;;;;11.20;99.90;;;;;;5416465;26;20274;-73
2024/04/24 13:31:36;;;;;;;;;;;11.20;99.90;;;;;;5445685;26;19924;-74
2024/04/24 13:34:01;;;;;;;;;;;11.30;99.90;;;;;;5438975;26;19931;-73
2024/04/24 13:36:27;;;;;;;;;;;11.20;99.90;;;;;;5448241;26;19925;-73
2024/04/24 13:38:52;;;;;;;;;;;11.20;99.90;;;;;;5415911;26;20430;-74
2024/04/24 13:41:20;;;;;;;;;;;11.10;99.90;;;;;;5447685;26;19924;-72
2024/04/24 13:43:47;;;;;;;;;;;11.00;99.90;;;;;;5448327;26;19948;-72
2024/04/24 13:46:16;;;;;;;;;;;10.90;99.90;;;;;;5448151;26;19925;-72
2024/04/24 13:48:41;;;;;;;;;;;10.80;99.90;;;;;;5447813;26;19952;-73
2024/04/24 13:51:07;;;;;;;;;;;10.60;99.90;;;;;;5447681;26;19925;-73
2024/04/24 13:53:33;;;;;;;;;;;10.60;99.90;;;;;;5447972;26;19924;-75
2024/04/24 13:56:00;;;;;;;;;;;10.60;99.90;;;;;;5446207;26;19924;-74
2024/04/24 13:58:27;;;;;;;;;;;10.40;99.90;;;;;;5447532;26;20545;-73
2024/04/24 14:00:53;;;;;;;;;;;10.30;99.90;;;;;;5448011;26;20365;-75
2024/04/24 14:03:18;;;;;;;;;;;10.30;99.90;;;;;;5447541;26;19966;-74
2024/04/24 14:05:48;;;;;;;;;;;10.20;99.90;;;;;;5445834;26;20335;-74
2024/04/24 14:08:14;;;;;;;;;;;10.20;99.90;;;;;;5447551;26;20365;-72
2024/04/24 14:10:40;;;;;;;;;;;10.20;99.90;;;;;;5447762;26;19968;-74
2024/04/24 14:13:05;;;;;;;;;;;10.10;99.90;;;;;;5447048;26;19934;-73
2024/04/24 14:15:31;;;;;;;;;;;10.10;99.90;;;;;;5415412;26;19952;-74